Time;durP1;ratioP1;P1;durP2;ratioP2;P2;SDS_P1;SDS_P2;PMS_P1;PMS_P2;Temp;Humidity;BMP_temperature;BMP_pressure;BME280_temperature;BME280_humidity;BME280_pressure;Samples;Min_cycle;Max_cycle;Signal;HPM_P1;HPM_P2
2021/01/05 00:00:20;;;;;;;2.47;0.90;;;10.60;81.50;;;;;;5095554;28;20024;-41
2021/01/05 00:02:47;;;;;;;0.93;0.82;;;10.70;81.40;;;;;;5083806;28;20021;-41
2021/01/05 00:05:14;;;;;;;4.65;0.85;;;10.60;81.40;;;;;;5083546;28;20145;-42
2021/01/05 00:07:40;;;;;;;1.75;0.90;;;10.60;81.30;;;;;;5083172;28;20044;-41
2021/01/05 00:10:07;;;;;;;1.58;1.20;;;10.60;81.40;;;;;;5083608;28;20726;-41
2021/01/05 00:12:34;;;;;;;4.07;1.10;;;10.60;81.30;;;;;;5083752;28;20060;-41
2021/01/05 00:15:00;;;;;;;1.85;1.02;;;10.60;81.20;;;;;;5115707;28;20040;-41
2021/01/05 00:17:29;;;;;;;2.33;0.82;;;10.60;81.10;;;;;;5083323;28;20616;-41
2021/01/05 00:19:55;;;;;;;1.38;0.80;;;10.60;81.10;;;;;;5104504;28;20500;-41
2021/01/05 00:22:21;;;;;;;1.77;0.90;;;10.60;81.00;;;;;;5124056;28;20028;-41
2021/01/05 00:24:47;;;;;;;1.63;1.02;;;10.60;80.80;;;;;;5124142;28;20126;-41
2021/01/05 00:27:13;;;;;;;1.17;0.90;;;10.60;80.80;;;;;;5123421;28;20103;-41
2021/01/05 00:29:40;;;;;;;5.93;0.87;;;10.60;80.70;;;;;;5119513;28;20031;-41
2021/01/05 00:32:14;;;;;;;2.42;0.88;;;10.60;80.70;;;;;;5103554;28;20058;-41
2021/01/05 00:34:43;;;;;;;2.63;1.10;;;10.60;80.70;;;;;;5103308;28;20111;-42
2021/01/05 00:37:10;;;;;;;3.35;1.00;;;10.60;80.70;;;;;;5103182;28;20032;-42
2021/01/05 00:39:36;;;;;;;1.30;0.73;;;10.60;80.70;;;;;;5103078;28;20028;-41
2021/01/05 00:42:02;;;;;;;2.95;0.98;;;10.60;80.70;;;;;;5103215;28;20021;-42
2021/01/05 00:44:28;;;;;;;1.13;0.80;;;10.60;80.70;;;;;;5102441;28;20062;-42
2021/01/05 00:46:55;;;;;;;2.85;1.08;;;10.60;80.70;;;;;;5103059;28;20050;-42
2021/01/05 00:49:21;;;;;;;1.70;0.85;;;10.60;80.60;;;;;;5102953;28;20020;-41
2021/01/05 00:51:47;;;;;;;2.45;0.80;;;10.50;80.60;;;;;;5103163;28;20024;-41
2021/01/05 00:54:13;;;;;;;1.23;0.80;;;10.50;80.60;;;;;;5103035;28;20028;-42
2021/01/05 00:56:39;;;;;;;1.83;1.08;;;10.50;80.50;;;;;;5103175;28;20040;-41
2021/01/05 00:59:06;;;;;;;0.93;0.77;;;10.50;80.60;;;;;;5102831;28;20043;-42
2021/01/05 01:01:32;;;;;;;0.90;0.70;;;10.50;80.50;;;;;;5081672;28;20099;-42
2021/01/05 01:03:58;;;;;;;1.25;0.90;;;10.50;80.50;;;;;;5082670;28;20471;-41
2021/01/05 01:06:25;;;;;;;1.48;0.70;;;10.50;80.50;;;;;;5082494;28;20047;-42
2021/01/05 01:08:51;;;;;;;1.05;0.68;;;10.50;80.50;;;;;;5111105;28;20181;-42
2021/01/05 01:11:17;;;;;;;3.50;1.17;;;10.50;80.50;;;;;;5123345;28;20026;-42
2021/01/05 01:13:45;;;;;;;1.20;0.90;;;10.50;80.40;;;;;;5123056;28;20028;-42
2021/01/05 01:16:13;;;;;;;1.40;0.98;;;10.50;80.50;;;;;;5121923;28;20084;-41
2021/01/05 01:18:39;;;;;;;3.05;1.08;;;10.50;80.50;;;;;;5122979;28;20503;-42
2021/01/05 01:21:05;;;;;;;1.52;0.80;;;10.40;80.40;;;;;;5082332;28;20048;-41
2021/01/05 01:23:31;;;;;;;3.58;1.10;;;10.40;80.40;;;;;;5082422;28;20039;-42
2021/01/05 01:25:58;;;;;;;1.35;0.75;;;10.40;80.50;;;;;;5082251;28;20075;-42
2021/01/05 01:28:24;;;;;;;1.63;1.00;;;10.40;80.40;;;;;;5082350;28;20032;-42
2021/01/05 01:30:50;;;;;;;2.08;0.90;;;10.40;80.40;;;;;;5097294;28;20042;-42
2021/01/05 01:33:16;;;;;;;1.23;0.70;;;10.40;80.40;;;;;;5119206;28;20057;-41
2021/01/05 01:35:42;;;;;;;1.58;1.02;;;10.40;80.40;;;;;;5122972;28;20024;-41
2021/01/05 01:38:09;;;;;;;0.98;0.77;;;10.40;80.40;;;;;;5123009;28;20030;-41
2021/01/05 01:40:40;;;;;;;1.42;0.70;;;10.40;80.40;;;;;;5122875;28;20058;-42
2021/01/05 01:43:06;;;;;;;1.08;0.70;;;10.40;80.40;;;;;;5122744;28;20024;-42
2021/01/05 01:45:36;;;;;;;2.17;0.90;;;10.40;80.40;;;;;;5121264;28;20081;-42
2021/01/05 01:48:03;;;;;;;1.52;0.80;;;10.30;80.30;;;;;;5123848;28;20548;-42
2021/01/05 01:50:30;;;;;;;;;;;10.30;80.30;;;;;;5106985;28;20028;-42
2021/01/05 01:53:18;;;;;;;3.03;1.38;;;10.30;80.40;;;;;;5105339;28;19907;-42
2021/01/05 01:56:09;;;;;;;1.35;1.20;;;10.30;80.20;;;;;;5104829;28;20032;-42
2021/01/05 01:58:58;;;;;;;2.20;0.98;;;10.30;80.30;;;;;;5106209;28;20058;-42
2021/01/05 02:01:43;;;;;;;1.80;0.80;;;10.30;80.30;;;;;;5105231;28;20024;-42
2021/01/05 02:04:25;;;;;;;3.60;1.10;;;10.30;80.30;;;;;;5106047;28;20031;-42
2021/01/05 02:07:08;;;;;;;1.40;0.98;;;10.20;80.30;;;;;;5094577;28;20060;-42
2021/01/05 02:09:40;;;;;;;1.35;0.88;;;10.30;80.40;;;;;;5085920;28;20029;-42
2021/01/05 02:12:33;;;;;;;1.50;0.90;;;10.20;80.20;;;;;;5085612;28;20052;-41
2021/01/05 02:15:20;;;;;;;1.35;1.00;;;10.20;80.20;;;;;;5084024;28;20020;-41
2021/01/05 02:18:28;;;;;;;2.55;0.80;;;10.20;80.30;;;;;;5084625;28;20054;-42
2021/01/05 02:21:06;;;;;;;1.50;0.93;;;10.20;80.30;;;;;;5101285;28;20036;-41
2021/01/05 02:23:51;;;;;;;4.60;1.08;;;10.20;80.30;;;;;;5089170;28;20803;-42
2021/01/05 02:26:54;;;;;;;1.30;0.80;;;10.20;80.30;;;;;;5105175;28;20056;-41
2021/01/05 02:29:24;;;;;;;1.05;1.00;;;10.20;80.20;;;;;;5105822;28;20048;-41
2021/01/05 02:31:53;;;;;;;2.70;1.13;;;10.20;80.20;;;;;;5105812;28;20111;-42
2021/01/05 02:34:32;;;;;;;1.23;1.00;;;10.20;80.30;;;;;;5104217;28;20028;-42
2021/01/05 02:37:36;;;;;;;1.20;1.00;;;10.20;80.30;;;;;;5104080;28;20031;-41
2021/01/05 02:40:39;;;;;;;2.67;0.80;;;10.10;80.20;;;;;;5042493;28;20050;-42
2021/01/05 02:43:19;;;;;;;1.23;0.90;;;10.10;80.20;;;;;;5009349;28;20052;-42
2021/01/05 02:46:08;;;;;;;1.08;0.82;;;10.10;80.30;;;;;;5014407;28;20884;-41
2021/01/05 02:49:11;;;;;;;1.00;0.90;;;10.10;80.20;;;;;;5017489;28;20038;-41
2021/01/05 02:51:55;;;;;;;2.10;1.10;;;10.10;80.30;;;;;;5022411;28;20044;-41
2021/01/05 02:54:39;;;;;;;1.33;0.88;;;10.10;80.30;;;;;;5022152;28;20096;-41
2021/01/05 02:57:21;;;;;;;1.30;1.10;;;10.10;80.40;;;;;;5022410;28;20669;-41
2021/01/05 03:00:08;;;;;;;1.65;1.30;;;10.10;80.30;;;;;;5027173;28;20049;-41
2021/01/05 03:03:11;;;;;;;1.60;0.70;;;10.00;80.30;;;;;;5042223;28;20061;-41
2021/01/05 03:05:47;;;;;;;1.33;0.90;;;10.10;80.40;;;;;;5041753;28;20089;-41
2021/01/05 03:08:14;;;;;;;1.30;0.95;;;10.10;80.40;;;;;;5005727;28;20025;-41
2021/01/05 03:10:47;;;;;;;1.08;0.90;;;10.00;80.30;;;;;;5005725;28;20025;-41
2021/01/05 03:13:27;;;;;;;1.48;1.05;;;10.00;80.30;;;;;;5015359;28;20113;-42
2021/01/05 03:15:54;;;;;;;1.90;1.05;;;10.00;80.30;;;;;;5068239;28;20032;-42
2021/01/05 03:18:58;;;;;;;1.70;1.10;;;10.00;80.30;;;;;;5103613;28;20024;-42
2021/01/05 03:21:28;;;;;;;1.42;0.75;;;10.00;80.30;;;;;;5123893;28;20059;-42
2021/01/05 03:23:55;;;;;;;1.17;0.98;;;10.00;80.30;;;;;;5107212;28;20035;-41
2021/01/05 03:26:29;;;;;;;1.67;0.93;;;10.00;80.30;;;;;;5106536;28;20079;-41
2021/01/05 03:28:55;;;;;;;1.02;0.90;;;10.00;80.30;;;;;;5123744;28;20095;-41
2021/01/05 03:31:33;;;;;;;1.75;1.08;;;10.00;80.30;;;;;;5104919;28;20028;-41
2021/01/05 03:34:01;;;;;;;1.90;1.08;;;10.00;80.30;;;;;;5104612;28;20035;-41
2021/01/05 03:36:27;;;;;;;;;;;10.00;80.30;;;;;;5104600;28;20051;-41
2021/01/05 03:38:53;;;;;;;1.90;1.00;;;10.00;80.30;;;;;;5138823;27;19995;-41
2021/01/05 03:41:19;;;;;;;1.55;1.05;;;10.00;80.30;;;;;;5104333;28;20338;-42
2021/01/05 03:43:45;;;;;;;1.60;1.08;;;9.90;80.30;;;;;;5120551;28;20034;-41
2021/01/05 03:46:12;;;;;;;2.25;1.17;;;9.90;80.30;;;;;;5124480;28;20062;-42
2021/01/05 03:48:38;;;;;;;1.60;1.23;;;9.90;79.60;;;;;;5124933;28;20065;-41
2021/01/05 03:51:05;;;;;;;1.07;0.97;;;9.90;80.30;;;;;;5107951;28;20039;-41
2021/01/05 03:53:33;;;;;;;1.80;1.23;;;9.90;80.30;;;;;;5104182;28;20027;-41
2021/01/05 03:56:00;;;;;;;0.85;0.80;;;9.90;80.30;;;;;;5103867;28;20069;-41
2021/01/05 03:58:26;;;;;;;1.58;1.20;;;9.90;80.30;;;;;;5104298;28;20034;-42
2021/01/05 04:00:53;;;;;;;1.85;1.15;;;9.90;80.40;;;;;;5103941;28;20050;-41
2021/01/05 04:03:19;;;;;;;;;;;9.90;80.30;;;;;;5104696;28;20122;-41
2021/01/05 04:05:45;;;;;;;1.33;1.10;;;9.90;80.30;;;;;;5102734;28;19947;-41
2021/01/05 04:08:12;;;;;;;2.33;0.98;;;9.90;80.30;;;;;;5083591;28;20028;-42
2021/01/05 04:10:38;;;;;;;1.50;1.10;;;9.90;80.30;;;;;;5082817;28;20028;-41
2021/01/05 04:13:04;;;;;;;1.50;1.33;;;9.90;80.30;;;;;;5085398;28;20032;-41
2021/01/05 04:15:30;;;;;;;1.35;0.98;;;9.90;80.30;;;;;;5103733;28;20088;-41
2021/01/05 04:17:57;;;;;;;1.88;1.20;;;9.90;80.30;;;;;;5103511;28;20052;-42
2021/01/05 04:20:24;;;;;;;1.30;1.20;;;9.80;80.20;;;;;;5103613;28;20016;-42
2021/01/05 04:22:51;;;;;;;1.55;0.90;;;9.80;80.30;;;;;;5102380;28;20091;-41
2021/01/05 04:25:18;;;;;;;2.15;1.00;;;9.80;80.30;;;;;;5103561;28;20028;-42
2021/01/05 04:27:44;;;;;;;1.88;1.40;;;9.80;80.20;;;;;;5103200;28;20046;-42
2021/01/05 04:30:18;;;;;;;0.90;0.83;;;9.80;80.20;;;;;;5103384;28;20028;-41
2021/01/05 04:32:44;;;;;;;1.38;1.25;;;9.80;80.20;;;;;;5103288;28;20024;-42
2021/01/05 04:35:11;;;;;;;1.30;1.00;;;9.80;80.30;;;;;;5103504;28;20087;-42
2021/01/05 04:37:37;;;;;;;1.60;1.48;;;9.80;80.20;;;;;;5103119;28;20016;-42
2021/01/05 04:40:05;;;;;;;1.50;1.40;;;9.80;80.10;;;;;;5103535;28;20115;-41
2021/01/05 04:42:34;;;;;;;1.83;1.40;;;9.80;80.30;;;;;;5103528;28;20047;-42
2021/01/05 04:45:15;;;;;;;1.40;1.30;;;9.80;80.30;;;;;;5101532;28;20091;-42
2021/01/05 04:48:04;;;;;;;1.50;1.10;;;9.80;80.20;;;;;;5128527;27;20036;-41
2021/01/05 04:50:38;;;;;;;2.20;1.30;;;9.80;80.20;;;;;;5101960;28;20049;-41
2021/01/05 04:53:13;;;;;;;1.73;1.40;;;9.80;80.30;;;;;;5101938;28;20035;-43
2021/01/05 04:55:48;;;;;;;1.52;1.30;;;9.70;80.30;;;;;;5101725;28;20031;-41
2021/01/05 04:58:29;;;;;;;1.67;1.40;;;9.70;80.30;;;;;;5101710;28;20028;-41
2021/01/05 05:00:55;;;;;;;1.27;1.17;;;9.70;80.20;;;;;;5086580;28;20040;-41
2021/01/05 05:03:25;;;;;;;1.67;1.33;;;9.70;80.30;;;;;;5114934;28;20025;-41
2021/01/05 05:06:20;;;;;;;1.58;1.08;;;9.70;81.00;;;;;;5082567;28;20033;-41
2021/01/05 05:09:00;;;;;;;2.70;1.45;;;9.70;80.30;;;;;;5063514;28;20066;-41
2021/01/05 05:11:28;;;;;;;1.85;1.38;;;9.70;80.30;;;;;;5082598;28;20080;-42
2021/01/05 05:14:06;;;;;;;1.58;1.35;;;9.70;80.20;;;;;;5097546;28;20028;-41
2021/01/05 05:16:52;;;;;;;1.77;1.20;;;9.70;80.30;;;;;;5114537;28;20021;-42
2021/01/05 05:19:47;;;;;;;1.58;1.33;;;9.70;80.30;;;;;;5121943;28;20122;-41
2021/01/05 05:22:36;;;;;;;1.58;1.30;;;9.60;80.20;;;;;;5107848;28;20466;-41
2021/01/05 05:25:07;;;;;;;2.17;1.35;;;9.60;80.20;;;;;;5091917;28;20059;-42
2021/01/05 05:27:56;;;;;;;2.28;1.58;;;9.60;80.30;;;;;;5084365;28;20060;-41
2021/01/05 05:30:35;;;;;;;1.70;1.40;;;9.60;80.20;;;;;;5102333;28;20020;-41
2021/01/05 05:33:03;;;;;;;1.55;1.40;;;9.60;80.30;;;;;;5101337;28;20088;-45
2021/01/05 05:35:46;;;;;;;1.92;1.38;;;9.60;80.30;;;;;;5101351;28;20051;-42
2021/01/05 05:38:20;;;;;;;2.03;1.20;;;9.60;80.30;;;;;;5101025;28;20665;-41
2021/01/05 05:40:57;;;;;;;1.55;1.10;;;9.60;80.30;;;;;;5101249;28;20024;-42
2021/01/05 05:43:58;;;;;;;1.20;1.10;;;9.60;80.30;;;;;;5101251;28;20053;-41
2021/01/05 05:46:38;;;;;;;2.35;1.10;;;9.60;80.30;;;;;;5041412;28;20049;-42
2021/01/05 05:49:18;;;;;;;1.50;1.40;;;9.60;80.30;;;;;;5030390;28;20059;-42
2021/01/05 05:51:49;;;;;;;2.33;1.52;;;9.60;80.30;;;;;;5015605;28;20034;-41
2021/01/05 05:54:21;;;;;;;2.15;1.35;;;9.50;80.20;;;;;;5003373;28;20034;-41
2021/01/05 05:56:59;;;;;;;1.77;1.40;;;9.50;80.20;;;;;;5019694;28;20038;-41
2021/01/05 05:59:37;;;;;;;1.92;1.40;;;9.50;80.30;;;;;;5005465;28;20034;-42
2021/01/05 06:02:04;;;;;;;1.85;1.17;;;9.50;80.30;;;;;;5039308;28;20120;-41
2021/01/05 06:04:32;;;;;;;1.45;1.20;;;9.50;80.20;;;;;;5039458;28;20061;-41
2021/01/05 06:06:58;;;;;;;2.08;1.52;;;9.50;80.20;;;;;;5006460;28;20040;-41
2021/01/05 06:09:24;;;;;;;1.70;1.55;;;9.50;80.30;;;;;;5022510;28;20088;-41
2021/01/05 06:11:52;;;;;;;1.60;1.40;;;9.50;80.30;;;;;;5039532;28;20033;-41
2021/01/05 06:14:18;;;;;;;;;;;9.50;80.30;;;;;;5039570;28;20111;-41
2021/01/05 06:16:44;;;;;;;1.35;1.20;;;9.40;80.20;;;;;;5039707;28;19909;-41
2021/01/05 06:19:10;;;;;;;1.80;1.25;;;9.40;80.20;;;;;;5043200;28;20509;-41
2021/01/05 06:21:36;;;;;;;2.00;1.52;;;9.40;80.30;;;;;;5074055;28;20126;-41
2021/01/05 06:24:02;;;;;;;1.88;1.45;;;9.40;80.30;;;;;;5102119;28;20035;-41
2021/01/05 06:26:28;;;;;;;2.22;1.50;;;9.40;80.20;;;;;;5101870;28;20048;-41
2021/01/05 06:28:54;;;;;;;2.60;1.60;;;9.40;80.20;;;;;;5101964;28;20052;-41
2021/01/05 06:31:21;;;;;;;2.08;1.50;;;9.40;80.20;;;;;;5102032;28;20517;-41
2021/01/05 06:33:47;;;;;;;1.88;1.40;;;9.40;80.20;;;;;;5103333;28;20028;-41
2021/01/05 06:36:13;;;;;;;1.77;1.55;;;9.40;80.20;;;;;;5105820;28;20024;-41
2021/01/05 06:38:39;;;;;;;1.65;1.20;;;9.40;80.30;;;;;;5105441;28;20032;-42
2021/01/05 06:41:05;;;;;;;1.98;1.40;;;9.40;80.30;;;;;;5105583;28;20111;-41
2021/01/05 06:43:31;;;;;;;4.10;1.58;;;9.40;80.30;;;;;;5105559;28;20046;-41
2021/01/05 06:45:58;;;;;;;1.95;1.50;;;9.40;80.30;;;;;;5105328;28;20052;-41
2021/01/05 06:48:24;;;;;;;2.00;1.50;;;9.40;80.30;;;;;;5105266;28;20030;-41
2021/01/05 06:50:50;;;;;;;1.50;1.30;;;9.40;80.20;;;;;;5124004;28;20031;-41
2021/01/05 06:53:16;;;;;;;1.80;1.42;;;9.40;80.30;;;;;;5124561;28;20054;-41
2021/01/05 06:55:43;;;;;;;2.63;1.40;;;9.30;80.20;;;;;;5125772;28;20027;-41
2021/01/05 06:58:09;;;;;;;2.42;1.63;;;9.30;80.20;;;;;;5125587;28;20066;-41
2021/01/05 07:00:35;;;;;;;2.15;1.60;;;9.30;80.20;;;;;;5111933;28;20032;-41
2021/01/05 07:03:01;;;;;;;2.50;1.90;;;9.30;80.10;;;;;;5105234;28;20039;-42
2021/01/05 07:05:27;;;;;;;1.85;1.40;;;9.30;80.20;;;;;;5104436;28;20568;-41
2021/01/05 07:07:53;;;;;;;2.25;1.40;;;9.30;80.20;;;;;;5104650;28;20063;-40
2021/01/05 07:10:20;;;;;;;1.73;1.40;;;9.30;80.20;;;;;;5105362;28;20032;-41
2021/01/05 07:12:49;;;;;;;1.30;1.20;;;9.30;80.20;;;;;;5103665;28;20021;-41
2021/01/05 07:15:17;;;;;;;1.98;1.42;;;9.30;80.20;;;;;;5104962;28;20043;-41
2021/01/05 07:17:43;;;;;;;1.50;1.30;;;9.30;80.20;;;;;;5105016;28;20031;-41
2021/01/05 07:20:10;;;;;;;2.78;1.65;;;9.20;80.20;;;;;;5114030;28;20023;-41
2021/01/05 07:22:36;;;;;;;2.15;1.48;;;9.20;80.20;;;;;;5125226;28;20030;-41
2021/01/05 07:25:03;;;;;;;1.38;1.27;;;9.20;80.30;;;;;;5125442;28;20040;-42
2021/01/05 07:27:29;;;;;;;2.80;1.52;;;9.20;80.20;;;;;;5125077;28;20047;-41
2021/01/05 07:29:55;;;;;;;2.28;1.52;;;9.20;80.20;;;;;;5117074;28;20035;-41
2021/01/05 07:32:22;;;;;;;1.85;1.50;;;9.20;80.30;;;;;;5104657;28;20040;-41
2021/01/05 07:34:48;;;;;;;1.67;1.38;;;9.20;80.30;;;;;;5104539;28;20039;-41
2021/01/05 07:37:28;;;;;;;2.03;1.50;;;9.20;80.30;;;;;;5104594;28;20028;-41
2021/01/05 07:39:55;;;;;;;2.08;1.45;;;9.20;80.30;;;;;;5103117;28;20032;-41
2021/01/05 07:42:28;;;;;;;2.50;1.92;;;9.20;80.20;;;;;;5104441;28;20038;-41
2021/01/05 07:44:56;;;;;;;2.47;1.60;;;9.20;80.20;;;;;;5104442;28;20127;-41
2021/01/05 07:47:25;;;;;;;2.50;1.40;;;9.20;80.40;;;;;;5105584;28;20059;-42
2021/01/05 07:49:51;;;;;;;1.48;1.23;;;9.20;80.30;;;;;;5110280;28;20019;-41
2021/01/05 07:52:36;;;;;;;1.73;1.40;;;9.10;80.30;;;;;;5104322;28;20107;-41
2021/01/05 07:55:19;;;;;;;2.35;1.58;;;9.10;80.20;;;;;;5104431;28;20089;-41
2021/01/05 07:57:45;;;;;;;2.38;1.33;;;9.10;80.20;;;;;;5104334;28;20032;-41
2021/01/05 08:00:16;;;;;;;2.45;1.80;;;9.10;80.30;;;;;;5103869;28;20038;-42
2021/01/05 08:02:43;;;;;;;2.03;1.30;;;9.10;80.40;;;;;;5104129;28;20051;-41
2021/01/05 08:05:13;;;;;;;2.17;1.50;;;9.10;80.20;;;;;;5103971;28;20550;-42
2021/01/05 08:07:39;;;;;;;2.20;1.60;;;9.10;80.30;;;;;;5103888;28;20507;-42
2021/01/05 08:10:06;;;;;;;2.03;1.55;;;9.10;80.30;;;;;;5103707;28;20100;-41
2021/01/05 08:12:32;;;;;;;1.88;1.50;;;9.10;80.30;;;;;;5104015;27;20103;-41
2021/01/05 08:14:59;;;;;;;2.00;1.40;;;9.10;80.30;;;;;;5103871;28;20028;-41
2021/01/05 08:17:25;;;;;;;2.17;1.50;;;9.10;80.30;;;;;;5103859;28;20032;-41
2021/01/05 08:19:51;;;;;;;2.08;1.60;;;9.10;80.30;;;;;;5113586;28;20104;-40
2021/01/05 08:22:17;;;;;;;1.73;1.40;;;9.10;80.30;;;;;;5124296;28;20027;-41
2021/01/05 08:24:43;;;;;;;1.75;1.52;;;9.10;80.40;;;;;;5122861;28;20024;-41
2021/01/05 08:27:10;;;;;;;2.00;1.52;;;9.10;80.40;;;;;;5122330;28;20055;-41
2021/01/05 08:29:36;;;;;;;2.25;1.30;;;9.10;80.30;;;;;;5119748;28;20028;-41
2021/01/05 08:32:03;;;;;;;1.77;1.55;;;9.10;80.30;;;;;;5103732;28;20131;-41
2021/01/05 08:34:29;;;;;;;1.63;1.30;;;9.10;80.30;;;;;;5103692;28;20131;-41
2021/01/05 08:36:57;;;;;;;2.90;1.60;;;9.10;80.40;;;;;;5103480;28;20280;-41
2021/01/05 08:39:23;;;;;;;2.60;1.58;;;9.10;80.30;;;;;;5103519;27;20044;-41
2021/01/05 08:41:52;;;;;;;2.85;1.70;;;9.00;80.30;;;;;;5103511;28;20032;-44
2021/01/05 08:44:18;;;;;;;2.72;1.80;;;9.00;80.30;;;;;;5102040;28;20516;-41
2021/01/05 08:46:45;;;;;;;2.10;1.60;;;9.00;80.30;;;;;;5103287;28;20081;-42
2021/01/05 08:49:11;;;;;;;3.08;1.75;;;9.00;80.30;;;;;;5107889;28;20051;-41
2021/01/05 08:51:37;;;;;;;1.70;1.42;;;9.00;80.30;;;;;;5117883;28;20021;-41
2021/01/05 08:54:03;;;;;;;1.50;1.33;;;9.00;80.30;;;;;;5103242;28;20020;-41
2021/01/05 08:56:29;;;;;;;1.30;1.20;;;9.00;80.30;;;;;;5102853;28;20020;-41
2021/01/05 08:58:56;;;;;;;2.78;1.40;;;9.00;80.30;;;;;;5103342;28;20054;-41
2021/01/05 09:01:22;;;;;;;1.80;1.07;;;9.00;80.30;;;;;;5102691;28;20028;-42
2021/01/05 09:03:48;;;;;;;2.47;1.58;;;9.00;80.30;;;;;;5103226;28;20256;-41
2021/01/05 09:06:20;;;;;;;1.90;1.50;;;9.00;80.30;;;;;;5103220;28;20056;-41
2021/01/05 09:08:46;;;;;;;1.80;1.40;;;9.00;80.40;;;;;;5101762;28;20012;-41
2021/01/05 09:11:26;;;;;;;2.25;1.77;;;9.00;80.40;;;;;;5102666;28;20110;-41
2021/01/05 09:13:52;;;;;;;1.63;1.35;;;9.00;80.30;;;;;;5102990;28;20040;-41
2021/01/05 09:16:29;;;;;;;1.90;1.33;;;9.00;80.30;;;;;;5105609;28;20028;-42
2021/01/05 09:18:55;;;;;;;2.00;1.55;;;9.00;80.30;;;;;;5105230;28;20032;-41
2021/01/05 09:21:23;;;;;;;1.40;1.23;;;9.00;80.30;;;;;;5123147;28;20136;-41
2021/01/05 09:23:52;;;;;;;;;;;8.90;80.30;;;;;;5123660;28;20437;-41
2021/01/05 09:26:23;;;;;;;1.75;1.45;;;8.90;80.30;;;;;;5123142;28;19927;-41
2021/01/05 09:28:49;;;;;;;2.33;1.60;;;8.90;80.30;;;;;;5123406;28;20038;-41
2021/01/05 09:31:18;;;;;;;1.33;1.23;;;8.90;80.30;;;;;;5105050;28;20069;-41
2021/01/05 09:33:45;;;;;;;2.00;1.50;;;8.90;80.30;;;;;;5101493;28;20038;-41
2021/01/05 09:36:11;;;;;;;3.00;1.55;;;8.90;80.30;;;;;;5102930;28;20074;-41
2021/01/05 09:38:38;;;;;;;1.83;1.25;;;8.90;80.30;;;;;;5102769;28;20028;-41
2021/01/05 09:41:05;;;;;;;2.03;1.50;;;8.90;80.30;;;;;;5102634;28;20032;-41
2021/01/05 09:43:31;;;;;;;1.90;1.70;;;8.90;80.30;;;;;;5102838;28;20373;-41
2021/01/05 09:45:57;;;;;;;1.20;1.10;;;8.90;80.30;;;;;;5102454;28;20067;-41
2021/01/05 09:48:23;;;;;;;1.92;1.35;;;8.90;80.40;;;;;;5102781;28;20024;-41
2021/01/05 09:50:50;;;;;;;2.20;1.40;;;8.90;80.30;;;;;;5120943;28;20096;-41
2021/01/05 09:53:16;;;;;;;1.80;1.67;;;8.90;80.30;;;;;;5111390;28;20050;-41
2021/01/05 09:55:42;;;;;;;2.08;1.40;;;8.90;80.30;;;;;;5102870;28;20614;-41
2021/01/05 09:58:08;;;;;;;2.00;1.55;;;8.90;80.30;;;;;;5102500;28;20028;-42
2021/01/05 10:00:34;;;;;;;1.58;1.35;;;8.90;80.40;;;;;;5106983;28;20042;-41
2021/01/05 10:03:00;;;;;;;3.15;1.80;;;8.90;80.40;;;;;;5123140;28;20058;-41
2021/01/05 10:05:27;;;;;;;1.52;1.25;;;8.90;80.30;;;;;;5122964;28;20026;-41
2021/01/05 10:07:54;;;;;;;1.85;1.45;;;8.90;80.40;;;;;;5122961;28;20085;-42
2021/01/05 10:10:24;;;;;;;1.80;1.45;;;8.90;80.40;;;;;;5126600;28;20028;-41
2021/01/05 10:12:51;;;;;;;1.77;1.50;;;8.80;80.40;;;;;;5126795;28;20031;-41
2021/01/05 10:15:18;;;;;;;2.00;1.40;;;8.90;80.40;;;;;;5127025;28;20400;-41
2021/01/05 10:17:45;;;;;;;2.13;1.83;;;8.80;80.40;;;;;;5125589;28;20035;-42
2021/01/05 10:20:11;;;;;;;1.85;1.38;;;8.80;80.40;;;;;;5113830;28;20028;-42
2021/01/05 10:22:38;;;;;;;1.67;1.55;;;8.80;80.30;;;;;;5106146;28;20028;-41
2021/01/05 10:25:08;;;;;;;1.80;1.60;;;8.80;80.40;;;;;;5106195;28;20102;-41
2021/01/05 10:27:34;;;;;;;1.75;1.50;;;8.80;80.40;;;;;;5105837;28;20308;-41
2021/01/05 10:30:01;;;;;;;1.70;1.33;;;8.80;80.40;;;;;;5105734;28;20081;-41
2021/01/05 10:32:27;;;;;;;2.95;1.50;;;8.80;80.40;;;;;;5106023;28;20110;-41
2021/01/05 10:34:53;;;;;;;1.42;1.33;;;8.80;80.40;;;;;;5106322;28;20016;-41
2021/01/05 10:37:19;;;;;;;1.65;1.40;;;8.80;80.50;;;;;;5105731;28;20086;-41
2021/01/05 10:39:45;;;;;;;1.58;1.10;;;8.80;80.40;;;;;;5106038;28;20808;-41
2021/01/05 10:42:11;;;;;;;1.65;1.30;;;8.80;80.40;;;;;;5105549;28;20050;-41
2021/01/05 10:44:37;;;;;;;1.92;1.42;;;8.80;80.50;;;;;;5105751;28;20499;-41
2021/01/05 10:47:05;;;;;;;2.40;1.77;;;8.80;80.50;;;;;;5101874;28;20381;-42
2021/01/05 10:49:31;;;;;;;2.20;1.48;;;8.80;80.50;;;;;;5113021;28;20440;-41
2021/01/05 10:52:00;;;;;;;2.40;1.50;;;8.80;80.50;;;;;;5125979;28;20031;-41
2021/01/05 10:54:27;;;;;;;1.67;1.55;;;8.80;80.40;;;;;;5124945;28;20023;-41
2021/01/05 10:56:58;;;;;;;1.65;1.40;;;8.80;80.40;;;;;;5124792;28;20023;-41
2021/01/05 10:59:24;;;;;;;1.90;1.70;;;8.80;80.50;;;;;;5123901;28;20062;-41
2021/01/05 11:01:51;;;;;;;1.37;1.27;;;8.80;80.40;;;;;;5105327;28;20563;-41
2021/01/05 11:04:19;;;;;;;2.10;1.57;;;8.80;80.50;;;;;;5105673;28;20031;-41
2021/01/05 11:07:15;;;;;;;2.10;1.50;;;8.80;80.50;;;;;;5105217;28;20289;-42
2021/01/05 11:09:42;;;;;;;1.95;1.38;;;8.70;80.40;;;;;;5104074;28;20092;-41
2021/01/05 11:12:10;;;;;;;1.83;1.52;;;8.70;80.40;;;;;;5105024;28;20032;-41
2021/01/05 11:14:42;;;;;;;1.67;1.52;;;8.70;80.40;;;;;;5105188;28;20043;-42
2021/01/05 11:17:08;;;;;;;2.13;1.27;;;8.70;80.50;;;;;;5105252;28;20063;-41
2021/01/05 11:19:35;;;;;;;1.70;1.40;;;8.70;80.50;;;;;;5112740;28;20016;-41
2021/01/05 11:22:04;;;;;;;1.95;1.70;;;8.70;80.50;;;;;;5122090;28;20031;-41
2021/01/05 11:24:32;;;;;;;1.45;1.20;;;8.70;80.50;;;;;;5125554;27;20035;-41
2021/01/05 11:26:59;;;;;;;2.20;1.73;;;8.70;80.50;;;;;;5125184;28;20051;-41
2021/01/05 11:29:25;;;;;;;2.38;1.65;;;8.70;80.50;;;;;;5123149;28;20075;-41
2021/01/05 11:31:56;;;;;;;1.70;1.47;;;8.70;80.50;;;;;;5104818;28;20028;-41
2021/01/05 11:34:23;;;;;;;1.70;1.40;;;8.70;80.50;;;;;;5104816;28;20040;-41
2021/01/05 11:36:49;;;;;;;2.00;1.58;;;8.60;81.10;;;;;;5104668;28;20040;-42
2021/01/05 11:39:16;;;;;;;1.83;1.42;;;8.70;80.60;;;;;;5104804;28;20036;-41
2021/01/05 11:41:45;;;;;;;1.75;1.42;;;8.60;80.40;;;;;;5103257;28;20028;-41
2021/01/05 11:44:13;;;;;;;1.60;1.38;;;8.60;80.40;;;;;;5104615;28;20028;-42
2021/01/05 11:46:41;;;;;;;2.13;1.65;;;8.60;80.50;;;;;;5104891;28;20241;-41
2021/01/05 11:49:07;;;;;;;2.35;1.35;;;8.60;81.20;;;;;;5108458;28;20032;-41
2021/01/05 11:51:35;;;;;;;2.03;1.50;;;8.60;80.50;;;;;;5124883;27;20038;-41
2021/01/05 11:54:02;;;;;;;2.35;1.63;;;8.60;80.50;;;;;;5124694;28;20110;-41
2021/01/05 11:56:30;;;;;;;2.47;1.87;;;8.60;80.40;;;;;;5111619;28;20020;-41
2021/01/05 11:58:56;;;;;;;2.20;1.67;;;8.60;80.50;;;;;;5104505;28;20757;-41
2021/01/05 12:01:22;;;;;;;2.03;1.83;;;8.60;80.50;;;;;;5104184;28;20035;-41
2021/01/05 12:03:51;;;;;;;2.95;1.90;;;8.60;80.50;;;;;;5104401;28;20096;-41
2021/01/05 12:06:22;;;;;;;1.90;1.30;;;8.60;80.50;;;;;;5104305;28;20048;-41
2021/01/05 12:08:50;;;;;;;1.48;1.38;;;8.50;80.40;;;;;;5104307;28;20020;-41
2021/01/05 12:11:24;;;;;;;2.33;1.73;;;8.50;80.40;;;;;;5104528;28;20066;-41
2021/01/05 12:13:50;;;;;;;2.28;1.55;;;8.50;80.50;;;;;;5102772;28;20481;-41
2021/01/05 12:16:37;;;;;;;2.30;1.73;;;8.50;80.50;;;;;;5102515;28;20082;-41
2021/01/05 12:19:06;;;;;;;2.65;1.70;;;8.50;80.40;;;;;;5107469;28;20290;-41
2021/01/05 12:21:37;;;;;;;2.03;1.67;;;8.50;80.50;;;;;;5124542;28;20039;-41
2021/01/05 12:24:04;;;;;;;1.73;1.38;;;8.50;80.50;;;;;;5124402;28;20058;-41
2021/01/05 12:26:31;;;;;;;2.38;1.83;;;8.50;80.50;;;;;;5124279;28;20048;-41
2021/01/05 12:28:59;;;;;;;4.20;1.80;;;8.50;80.50;;;;;;5124412;28;20045;-41
2021/01/05 12:31:25;;;;;;;2.17;1.90;;;8.50;80.50;;;;;;5104065;28;20036;-41
2021/01/05 12:33:51;;;;;;;2.10;1.80;;;8.50;80.50;;;;;;5104068;28;20031;-41
2021/01/05 12:36:29;;;;;;;2.70;1.65;;;8.50;80.50;;;;;;5103648;28;20048;-41
2021/01/05 12:38:55;;;;;;;2.60;1.33;;;8.40;80.50;;;;;;5103813;28;20032;-41
2021/01/05 12:41:21;;;;;;;2.47;1.70;;;8.40;80.50;;;;;;5103889;28;20032;-41
2021/01/05 12:43:47;;;;;;;2.50;1.88;;;8.40;80.60;;;;;;5103645;28;20264;-41
2021/01/05 12:46:22;;;;;;;2.30;1.65;;;8.40;80.50;;;;;;5103328;28;20032;-41
2021/01/05 12:48:48;;;;;;;1.90;1.60;;;8.40;80.50;;;;;;5103454;28;20099;-41
2021/01/05 12:51:15;;;;;;;2.45;1.80;;;8.40;80.50;;;;;;5105254;28;20028;-41
2021/01/05 12:53:44;;;;;;;2.58;1.80;;;8.40;80.50;;;;;;5103466;27;20028;-41
2021/01/05 12:56:10;;;;;;;2.10;1.60;;;8.40;80.50;;;;;;5103244;28;20032;-41
2021/01/05 12:58:36;;;;;;;1.95;1.75;;;8.40;80.60;;;;;;5102038;28;20035;-41
2021/01/05 13:01:02;;;;;;;2.83;1.70;;;8.40;80.50;;;;;;5087220;28;20020;-41
2021/01/05 13:03:29;;;;;;;3.95;1.98;;;8.40;80.60;;;;;;5083059;28;20054;-41
2021/01/05 13:05:55;;;;;;;2.35;1.90;;;8.40;80.50;;;;;;5082916;28;20035;-41
2021/01/05 13:08:21;;;;;;;3.38;1.88;;;8.40;80.60;;;;;;5082499;28;20028;-41
2021/01/05 13:10:50;;;;;;;2.40;1.85;;;8.40;80.50;;;;;;5083152;28;20052;-41